This is the latest recevied weather packets stored in our database for station/object OE-11213. If no packets are shown the sender has not sent any weather packets the latest 10 day(s).
| Time | Temp. | Humidity | Pressure | Rain* | Wind** | Luminosity | Snow |
|---|---|---|---|---|---|---|---|
| 1788438331 | 26.11° C | 43% | 1017.5 hPa | 0 mm | - | 732 W/m² | - |
| 1788437131 | 26.11° C | 44% | 1017.9 hPa | 0 mm | - | 711 W/m² | - |
| 1788435331 | 25.56° C | 49% | 1018.5 hPa | 0 mm | - | 769 W/m² | - |
| 1788434731 | 25.56° C | 49% | 1018.5 hPa | 0 mm | - | 769 W/m² | - |
| 1788433904 | 25° C | 52% | 1018.7 hPa | 0 mm | - | 769 W/m² | - |
| 1788432931 | 24.44° C | 55% | 1019.1 hPa | 0 mm | - | 761 W/m² | - |
| 1788431731 | 23.89° C | 56% | 1019.4 hPa | 0 mm | - | 754 W/m² | - |
| 1788431131 | 23.89° C | 55% | 1019.9 hPa | 0 mm | - | 754 W/m² | - |
| 1788430304 | 23.33° C | 57% | 1020 hPa | 0 mm | - | 740 W/m² | - |
| 1788429931 | 23.33° C | 58% | 1020 hPa | 0 mm | - | 732 W/m² | - |
| 1788429331 | 22.78° C | 61% | 1020.3 hPa | 0 mm | - | 718 W/m² | - |
| 1788428504 | 22.78° C | 62% | 1020.5 hPa | 0 mm | - | 703 W/m² | - |
| 1788428131 | 22.78° C | 62% | 1020.6 hPa | 0 mm | - | 696 W/m² | - |
| 1788426704 | 21.67° C | 64% | 1021.1 hPa | 0 mm | - | 645 W/m² | - |
| 1788426331 | 22.22° C | 63% | 1021 hPa | 0 mm | - | 638 W/m² | - |
| 1788425731 | 21.67° C | 65% | 1021.4 hPa | 0 mm | - | 624 W/m² | - |
| 1788424531 | 21.11° C | 66% | 1021.5 hPa | 0 mm | - | 573 W/m² | - |
| 1788423931 | 21.11° C | 69% | 1021.5 hPa | 0 mm | - | 551 W/m² | - |
| 1788423104 | 20.56° C | 69% | 1021.6 hPa | 0 mm | - | 529 W/m² | - |
| 1788422731 | 20.56° C | 71% | 1021.8 hPa | 0 mm | - | 508 W/m² | - |
| 1788422131 | 20.56° C | 71% | 1021.9 hPa | 0 mm | - | 479 W/m² | - |
| 1788421304 | 20° C | 73% | 1022 hPa | 0 mm | - | 457 W/m² | - |
| 1788420931 | 19.44° C | 75% | 1022 hPa | 0 mm | - | 428 W/m² | - |
| 1788420330 | 18.33° C | 80% | 1022.4 hPa | 0 mm | - | 377 W/m² | - |
| 1788419504 | 18.33° C | 79% | 1022.3 hPa | 0 mm | - | 348 W/m² | - |
* Rain latest hour (hover to see other rain measurements)
** Current wind speed in m/s (hover to see current wind gust speed)